sensor_id;sensor_type;location;lat;lon;timestamp;P1;durP1;ratioP1;P2;durP2;ratioP2
209;SDS011;90;48.810;9.120;2022-11-20T00:00:09;38.80;;;16.70;;
209;SDS011;90;48.810;9.120;2022-11-20T00:02:37;28.20;;;15.38;;
209;SDS011;90;48.810;9.120;2022-11-20T00:05:04;32.33;;;17.23;;
209;SDS011;90;48.810;9.120;2022-11-20T00:07:33;29.23;;;15.82;;
209;SDS011;90;48.810;9.120;2022-11-20T00:10:00;28.83;;;15.63;;
209;SDS011;90;48.810;9.120;2022-11-20T00:12:27;31.73;;;16.33;;
209;SDS011;90;48.810;9.120;2022-11-20T00:14:54;34.63;;;17.60;;
209;SDS011;90;48.810;9.120;2022-11-20T00:17:21;29.97;;;15.73;;
209;SDS011;90;48.810;9.120;2022-11-20T00:19:48;31.80;;;16.13;;
209;SDS011;90;48.810;9.120;2022-11-20T00:22:15;31.17;;;15.87;;
209;SDS011;90;48.810;9.120;2022-11-20T00:24:43;31.98;;;15.38;;
209;SDS011;90;48.810;9.120;2022-11-20T00:27:10;26.67;;;15.00;;
209;SDS011;90;48.810;9.120;2022-11-20T00:29:38;25.15;;;14.77;;
209;SDS011;90;48.810;9.120;2022-11-20T00:32:05;28.90;;;15.63;;
209;SDS011;90;48.810;9.120;2022-11-20T00:34:32;27.65;;;14.93;;
209;SDS011;90;48.810;9.120;2022-11-20T00:36:59;21.23;;;13.60;;
209;SDS011;90;48.810;9.120;2022-11-20T00:39:26;19.07;;;12.17;;
209;SDS011;90;48.810;9.120;2022-11-20T00:41:54;18.90;;;12.13;;
209;SDS011;90;48.810;9.120;2022-11-20T00:44:21;20.83;;;12.50;;
209;SDS011;90;48.810;9.120;2022-11-20T00:46:48;18.40;;;11.57;;
209;SDS011;90;48.810;9.120;2022-11-20T00:49:15;15.20;;;10.20;;
209;SDS011;90;48.810;9.120;2022-11-20T00:51:42;13.05;;;8.90;;
209;SDS011;90;48.810;9.120;2022-11-20T00:54:09;10.57;;;7.60;;
209;SDS011;90;48.810;9.120;2022-11-20T00:56:36;12.27;;;7.37;;
209;SDS011;90;48.810;9.120;2022-11-20T00:59:05;9.20;;;7.10;;
209;SDS011;90;48.810;9.120;2022-11-20T01:01:32;8.50;;;6.83;;
209;SDS011;90;48.810;9.120;2022-11-20T01:03:59;10.00;;;6.67;;
209;SDS011;90;48.810;9.120;2022-11-20T01:06:27;8.03;;;5.63;;
209;SDS011;90;48.810;9.120;2022-11-20T01:08:56;9.87;;;6.30;;
209;SDS011;90;48.810;9.120;2022-11-20T01:11:26;7.43;;;6.80;;
209;SDS011;90;48.810;9.120;2022-11-20T01:13:54;9.10;;;6.67;;
209;SDS011;90;48.810;9.120;2022-11-20T01:16:25;7.40;;;6.00;;
209;SDS011;90;48.810;9.120;2022-11-20T01:18:54;8.87;;;6.40;;
209;SDS011;90;48.810;9.120;2022-11-20T01:21:23;9.60;;;5.67;;
209;SDS011;90;48.810;9.120;2022-11-20T01:23:52;8.37;;;6.60;;
209;SDS011;90;48.810;9.120;2022-11-20T01:26:20;6.43;;;5.80;;
209;SDS011;90;48.810;9.120;2022-11-20T01:28:49;7.20;;;6.10;;
209;SDS011;90;48.810;9.120;2022-11-20T01:31:17;6.83;;;5.93;;
209;SDS011;90;48.810;9.120;2022-11-20T01:33:47;7.53;;;5.67;;
209;SDS011;90;48.810;9.120;2022-11-20T01:36:15;6.60;;;5.40;;
209;SDS011;90;48.810;9.120;2022-11-20T01:38:43;8.17;;;6.60;;
209;SDS011;90;48.810;9.120;2022-11-20T01:41:10;8.30;;;5.57;;
209;SDS011;90;48.810;9.120;2022-11-20T01:44:00;7.10;;;5.33;;
209;SDS011;90;48.810;9.120;2022-11-20T01:46:27;5.47;;;5.10;;
209;SDS011;90;48.810;9.120;2022-11-20T01:48:59;9.70;;;6.50;;
209;SDS011;90;48.810;9.120;2022-11-20T01:51:30;7.53;;;6.23;;
209;SDS011;90;48.810;9.120;2022-11-20T01:54:01;9.70;;;6.40;;
209;SDS011;90;48.810;9.120;2022-11-20T01:56:33;10.30;;;7.50;;
209;SDS011;90;48.810;9.120;2022-11-20T01:59:04;9.77;;;7.07;;
209;SDS011;90;48.810;9.120;2022-11-20T02:01:33;14.70;;;8.60;;
209;SDS011;90;48.810;9.120;2022-11-20T02:04:02;12.07;;;8.10;;
209;SDS011;90;48.810;9.120;2022-11-20T02:06:30;12.53;;;7.90;;
209;SDS011;90;48.810;9.120;2022-11-20T02:09:01;12.57;;;7.30;;
209;SDS011;90;48.810;9.120;2022-11-20T02:11:29;6.37;;;5.53;;
209;SDS011;90;48.810;9.120;2022-11-20T02:13:56;5.87;;;4.67;;
209;SDS011;90;48.810;9.120;2022-11-20T02:16:23;4.87;;;4.57;;
209;SDS011;90;48.810;9.120;2022-11-20T02:18:51;5.00;;;4.70;;
209;SDS011;90;48.810;9.120;2022-11-20T02:21:29;5.07;;;4.70;;
209;SDS011;90;48.810;9.120;2022-11-20T02:24:03;5.10;;;4.80;;
209;SDS011;90;48.810;9.120;2022-11-20T02:26:34;5.50;;;4.20;;
209;SDS011;90;48.810;9.120;2022-11-20T02:29:05;5.23;;;4.20;;
209;SDS011;90;48.810;9.120;2022-11-20T02:31:36;5.15;;;4.30;;
209;SDS011;90;48.810;9.120;2022-11-20T02:34:05;6.67;;;5.23;;
209;SDS011;90;48.810;9.120;2022-11-20T02:36:32;4.80;;;4.50;;
209;SDS011;90;48.810;9.120;2022-11-20T02:39:03;4.03;;;3.83;;
209;SDS011;90;48.810;9.120;2022-11-20T02:41:31;4.47;;;4.13;;
209;SDS011;90;48.810;9.120;2022-11-20T02:43:59;10.20;;;4.40;;
209;SDS011;90;48.810;9.120;2022-11-20T02:46:27;4.50;;;4.20;;
209;SDS011;90;48.810;9.120;2022-11-20T02:48:54;4.37;;;4.07;;
209;SDS011;90;48.810;9.120;2022-11-20T02:51:21;6.10;;;4.13;;
209;SDS011;90;48.810;9.120;2022-11-20T02:53:49;3.97;;;3.77;;
209;SDS011;90;48.810;9.120;2022-11-20T02:56:17;5.10;;;4.33;;
209;SDS011;90;48.810;9.120;2022-11-20T02:58:44;4.97;;;4.67;;
209;SDS011;90;48.810;9.120;2022-11-20T03:01:11;5.63;;;4.43;;
209;SDS011;90;48.810;9.120;2022-11-20T03:03:39;4.83;;;4.53;;
209;SDS011;90;48.810;9.120;2022-11-20T03:06:06;4.87;;;4.50;;
209;SDS011;90;48.810;9.120;2022-11-20T03:08:34;4.40;;;4.10;;
209;SDS011;90;48.810;9.120;2022-11-20T03:11:04;5.10;;;4.60;;
209;SDS011;90;48.810;9.120;2022-11-20T03:13:34;7.90;;;4.70;;
209;SDS011;90;48.810;9.120;2022-11-20T03:16:05;4.90;;;4.60;;
209;SDS011;90;48.810;9.120;2022-11-20T03:18:37;4.97;;;4.43;;
209;SDS011;90;48.810;9.120;2022-11-20T03:21:05;4.60;;;4.30;;
209;SDS011;90;48.810;9.120;2022-11-20T03:23:32;5.87;;;4.70;;
209;SDS011;90;48.810;9.120;2022-11-20T03:26:07;5.37;;;4.73;;
209;SDS011;90;48.810;9.120;2022-11-20T03:28:39;5.13;;;4.45;;
209;SDS011;90;48.810;9.120;2022-11-20T03:31:07;4.63;;;4.33;;
209;SDS011;90;48.810;9.120;2022-11-20T03:33:35;4.57;;;4.27;;
209;SDS011;90;48.810;9.120;2022-11-20T03:36:02;5.40;;;4.90;;
209;SDS011;90;48.810;9.120;2022-11-20T03:38:30;6.27;;;5.10;;
209;SDS011;90;48.810;9.120;2022-11-20T03:40:58;5.40;;;5.10;;
209;SDS011;90;48.810;9.120;2022-11-20T03:43:27;6.57;;;5.23;;
209;SDS011;90;48.810;9.120;2022-11-20T03:45:55;7.03;;;4.50;;
209;SDS011;90;48.810;9.120;2022-11-20T03:48:22;6.07;;;4.90;;
209;SDS011;90;48.810;9.120;2022-11-20T03:50:50;5.37;;;4.97;;
209;SDS011;90;48.810;9.120;2022-11-20T03:53:17;7.80;;;5.47;;
209;SDS011;90;48.810;9.120;2022-11-20T03:55:44;5.57;;;4.97;;
209;SDS011;90;48.810;9.120;2022-11-20T03:58:11;5.50;;;5.20;;
209;SDS011;90;48.810;9.120;2022-11-20T04:00:38;5.60;;;5.32;;
209;SDS011;90;48.810;9.120;2022-11-20T04:03:07;5.97;;;5.10;;
209;SDS011;90;48.810;9.120;2022-11-20T04:05:34;9.10;;;5.50;;
209;SDS011;90;48.810;9.120;2022-11-20T04:08:00;5.43;;;5.00;;
209;SDS011;90;48.810;9.120;2022-11-20T04:10:27;5.90;;;5.10;;
209;SDS011;90;48.810;9.120;2022-11-20T04:12:54;6.18;;;5.43;;
209;SDS011;90;48.810;9.120;2022-11-20T04:15:21;6.70;;;5.43;;
209;SDS011;90;48.810;9.120;2022-11-20T04:17:48;8.05;;;5.82;;
209;SDS011;90;48.810;9.120;2022-11-20T04:20:17;8.98;;;5.00;;
209;SDS011;90;48.810;9.120;2022-11-20T04:22:44;5.43;;;4.80;;
209;SDS011;90;48.810;9.120;2022-11-20T04:25:11;7.10;;;5.68;;
209;SDS011;90;48.810;9.120;2022-11-20T04:27:38;7.03;;;5.43;;
209;SDS011;90;48.810;9.120;2022-11-20T04:30:07;6.17;;;5.70;;
209;SDS011;90;48.810;9.120;2022-11-20T04:32:35;4.97;;;4.70;;
209;SDS011;90;48.810;9.120;2022-11-20T04:35:02;5.67;;;5.17;;
209;SDS011;90;48.810;9.120;2022-11-20T04:37:30;7.17;;;4.20;;
209;SDS011;90;48.810;9.120;2022-11-20T04:39:57;5.90;;;4.80;;
209;SDS011;90;48.810;9.120;2022-11-20T04:42:24;4.80;;;4.50;;
209;SDS011;90;48.810;9.120;2022-11-20T04:44:57;4.90;;;4.60;;
209;SDS011;90;48.810;9.120;2022-11-20T04:47:24;4.90;;;4.63;;
209;SDS011;90;48.810;9.120;2022-11-20T04:49:51;4.60;;;4.30;;
209;SDS011;90;48.810;9.120;2022-11-20T04:52:18;4.17;;;3.93;;
209;SDS011;90;48.810;9.120;2022-11-20T04:54:47;8.30;;;4.10;;
209;SDS011;90;48.810;9.120;2022-11-20T04:57:17;6.63;;;4.73;;
209;SDS011;90;48.810;9.120;2022-11-20T04:59:45;10.10;;;4.47;;
209;SDS011;90;48.810;9.120;2022-11-20T05:02:12;4.47;;;4.17;;
209;SDS011;90;48.810;9.120;2022-11-20T05:04:39;5.30;;;4.60;;
209;SDS011;90;48.810;9.120;2022-11-20T05:07:06;5.00;;;4.70;;
209;SDS011;90;48.810;9.120;2022-11-20T05:09:33;4.83;;;4.57;;
209;SDS011;90;48.810;9.120;2022-11-20T05:12:01;4.97;;;4.70;;
209;SDS011;90;48.810;9.120;2022-11-20T05:14:28;5.70;;;4.67;;
209;SDS011;90;48.810;9.120;2022-11-20T05:16:55;4.93;;;4.63;;
209;SDS011;90;48.810;9.120;2022-11-20T05:19:22;4.47;;;4.17;;
209;SDS011;90;48.810;9.120;2022-11-20T05:21:49;4.80;;;4.50;;
209;SDS011;90;48.810;9.120;2022-11-20T05:24:17;4.50;;;4.20;;
209;SDS011;90;48.810;9.120;2022-11-20T05:26:44;5.20;;;4.90;;
209;SDS011;90;48.810;9.120;2022-11-20T05:29:12;3.73;;;3.53;;
209;SDS011;90;48.810;9.120;2022-11-20T05:31:39;4.10;;;3.90;;
209;SDS011;90;48.810;9.120;2022-11-20T05:34:06;4.70;;;4.40;;
209;SDS011;90;48.810;9.120;2022-11-20T05:36:34;6.70;;;5.27;;
209;SDS011;90;48.810;9.120;2022-11-20T05:39:01;6.73;;;4.50;;
209;SDS011;90;48.810;9.120;2022-11-20T05:41:28;5.90;;;5.17;;
209;SDS011;90;48.810;9.120;2022-11-20T05:43:55;4.27;;;4.03;;
209;SDS011;90;48.810;9.120;2022-11-20T05:46:25;5.80;;;4.63;;
209;SDS011;90;48.810;9.120;2022-11-20T05:48:52;4.83;;;4.53;;
209;SDS011;90;48.810;9.120;2022-11-20T05:51:19;5.00;;;4.60;;
209;SDS011;90;48.810;9.120;2022-11-20T05:53:46;4.67;;;4.30;;
209;SDS011;90;48.810;9.120;2022-11-20T05:56:14;4.47;;;4.17;;
209;SDS011;90;48.810;9.120;2022-11-20T05:58:42;6.70;;;4.23;;
209;SDS011;90;48.810;9.120;2022-11-20T06:01:10;5.60;;;4.17;;
209;SDS011;90;48.810;9.120;2022-11-20T06:03:40;4.53;;;4.13;;
209;SDS011;90;48.810;9.120;2022-11-20T06:06:11;5.97;;;4.70;;
209;SDS011;90;48.810;9.120;2022-11-20T06:08:38;5.73;;;4.70;;
209;SDS011;90;48.810;9.120;2022-11-20T06:11:06;6.10;;;5.43;;
209;SDS011;90;48.810;9.120;2022-11-20T06:13:34;5.70;;;4.53;;
209;SDS011;90;48.810;9.120;2022-11-20T06:16:02;4.33;;;4.03;;
209;SDS011;90;48.810;9.120;2022-11-20T06:18:30;6.00;;;4.37;;
209;SDS011;90;48.810;9.120;2022-11-20T06:21:02;4.40;;;4.10;;
209;SDS011;90;48.810;9.120;2022-11-20T06:23:30;7.07;;;4.13;;
209;SDS011;90;48.810;9.120;2022-11-20T06:26:00;4.53;;;4.20;;
209;SDS011;90;48.810;9.120;2022-11-20T06:28:28;4.00;;;3.80;;
209;SDS011;90;48.810;9.120;2022-11-20T06:30:55;6.73;;;4.17;;
209;SDS011;90;48.810;9.120;2022-11-20T06:33:25;4.23;;;3.97;;
209;SDS011;90;48.810;9.120;2022-11-20T06:35:55;3.60;;;3.40;;
209;SDS011;90;48.810;9.120;2022-11-20T06:38:24;4.80;;;4.10;;
209;SDS011;90;48.810;9.120;2022-11-20T06:40:51;4.27;;;3.60;;
209;SDS011;90;48.810;9.120;2022-11-20T06:43:18;3.67;;;3.40;;
209;SDS011;90;48.810;9.120;2022-11-20T06:45:46;3.70;;;3.50;;
209;SDS011;90;48.810;9.120;2022-11-20T06:48:20;3.50;;;3.30;;
209;SDS011;90;48.810;9.120;2022-11-20T06:50:48;3.13;;;2.93;;
209;SDS011;90;48.810;9.120;2022-11-20T06:53:15;3.73;;;3.53;;
209;SDS011;90;48.810;9.120;2022-11-20T06:55:44;3.70;;;3.50;;
209;SDS011;90;48.810;9.120;2022-11-20T06:58:11;3.43;;;3.20;;
209;SDS011;90;48.810;9.120;2022-11-20T07:00:39;3.90;;;3.70;;
209;SDS011;90;48.810;9.120;2022-11-20T07:03:06;3.70;;;3.50;;
209;SDS011;90;48.810;9.120;2022-11-20T07:05:35;5.40;;;3.53;;
209;SDS011;90;48.810;9.120;2022-11-20T07:08:03;3.40;;;3.20;;
209;SDS011;90;48.810;9.120;2022-11-20T07:10:31;3.43;;;3.23;;
209;SDS011;90;48.810;9.120;2022-11-20T07:13:00;3.60;;;3.40;;
209;SDS011;90;48.810;9.120;2022-11-20T07:15:26;3.33;;;3.20;;
209;SDS011;90;48.810;9.120;2022-11-20T07:17:54;7.63;;;3.57;;
209;SDS011;90;48.810;9.120;2022-11-20T07:20:21;4.30;;;3.67;;
209;SDS011;90;48.810;9.120;2022-11-20T07:22:52;4.10;;;3.90;;
209;SDS011;90;48.810;9.120;2022-11-20T07:25:19;3.57;;;3.40;;
209;SDS011;90;48.810;9.120;2022-11-20T07:27:47;3.97;;;3.83;;
209;SDS011;90;48.810;9.120;2022-11-20T07:30:16;3.53;;;3.33;;
209;SDS011;90;48.810;9.120;2022-11-20T07:32:46;3.80;;;3.60;;
209;SDS011;90;48.810;9.120;2022-11-20T07:35:14;4.50;;;3.73;;
209;SDS011;90;48.810;9.120;2022-11-20T07:37:41;3.90;;;3.70;;
209;SDS011;90;48.810;9.120;2022-11-20T07:40:08;3.20;;;3.10;;
209;SDS011;90;48.810;9.120;2022-11-20T07:42:36;3.17;;;3.00;;
209;SDS011;90;48.810;9.120;2022-11-20T07:45:04;4.20;;;3.95;;
209;SDS011;90;48.810;9.120;2022-11-20T07:47:35;4.10;;;3.90;;
209;SDS011;90;48.810;9.120;2022-11-20T07:50:03;4.00;;;3.53;;
209;SDS011;90;48.810;9.120;2022-11-20T07:52:30;3.73;;;3.53;;
209;SDS011;90;48.810;9.120;2022-11-20T07:54:57;3.90;;;3.37;;
209;SDS011;90;48.810;9.120;2022-11-20T07:57:24;3.30;;;3.10;;
209;SDS011;90;48.810;9.120;2022-11-20T07:59:51;3.40;;;3.10;;
209;SDS011;90;48.810;9.120;2022-11-20T08:02:18;3.37;;;3.17;;
209;SDS011;90;48.810;9.120;2022-11-20T08:04:46;3.70;;;3.50;;
209;SDS011;90;48.810;9.120;2022-11-20T08:07:14;3.40;;;3.20;;
209;SDS011;90;48.810;9.120;2022-11-20T08:09:41;4.23;;;3.97;;
209;SDS011;90;48.810;9.120;2022-11-20T08:12:08;4.80;;;4.50;;
209;SDS011;90;48.810;9.120;2022-11-20T08:15:02;3.93;;;3.73;;
209;SDS011;90;48.810;9.120;2022-11-20T08:17:29;3.57;;;3.40;;
209;SDS011;90;48.810;9.120;2022-11-20T08:19:58;3.37;;;3.17;;
209;SDS011;90;48.810;9.120;2022-11-20T08:22:25;3.33;;;3.13;;
209;SDS011;90;48.810;9.120;2022-11-20T08:24:52;3.67;;;3.47;;
209;SDS011;90;48.810;9.120;2022-11-20T08:27:23;3.80;;;3.60;;
209;SDS011;90;48.810;9.120;2022-11-20T08:29:51;3.73;;;3.53;;
209;SDS011;90;48.810;9.120;2022-11-20T08:32:18;3.13;;;2.93;;
209;SDS011;90;48.810;9.120;2022-11-20T08:34:46;2.97;;;2.77;;
209;SDS011;90;48.810;9.120;2022-11-20T08:37:15;2.90;;;2.70;;
209;SDS011;90;48.810;9.120;2022-11-20T08:39:43;2.57;;;2.30;;
209;SDS011;90;48.810;9.120;2022-11-20T08:42:11;2.50;;;2.30;;
209;SDS011;90;48.810;9.120;2022-11-20T08:44:38;2.53;;;2.33;;
209;SDS011;90;48.810;9.120;2022-11-20T08:47:05;2.27;;;2.13;;
209;SDS011;90;48.810;9.120;2022-11-20T08:49:33;3.03;;;2.37;;
209;SDS011;90;48.810;9.120;2022-11-20T08:52:00;2.30;;;2.10;;
209;SDS011;90;48.810;9.120;2022-11-20T08:54:28;2.27;;;2.07;;
209;SDS011;90;48.810;9.120;2022-11-20T08:56:56;2.67;;;2.20;;
209;SDS011;90;48.810;9.120;2022-11-20T08:59:23;2.40;;;2.20;;
209;SDS011;90;48.810;9.120;2022-11-20T09:01:50;2.50;;;2.30;;
209;SDS011;90;48.810;9.120;2022-11-20T09:04:19;2.40;;;2.20;;
209;SDS011;90;48.810;9.120;2022-11-20T09:06:46;3.00;;;2.23;;
209;SDS011;90;48.810;9.120;2022-11-20T09:09:15;2.73;;;2.60;;
209;SDS011;90;48.810;9.120;2022-11-20T09:11:44;2.30;;;2.10;;
209;SDS011;90;48.810;9.120;2022-11-20T09:14:15;2.20;;;2.10;;
209;SDS011;90;48.810;9.120;2022-11-20T09:16:44;2.00;;;1.90;;
209;SDS011;90;48.810;9.120;2022-11-20T09:19:11;2.00;;;1.93;;
209;SDS011;90;48.810;9.120;2022-11-20T09:21:39;6.63;;;2.50;;
209;SDS011;90;48.810;9.120;2022-11-20T09:24:06;2.70;;;2.50;;
209;SDS011;90;48.810;9.120;2022-11-20T09:26:33;2.43;;;1.93;;
209;SDS011;90;48.810;9.120;2022-11-20T09:29:02;2.10;;;1.70;;
209;SDS011;90;48.810;9.120;2022-11-20T09:31:29;2.20;;;2.03;;
209;SDS011;90;48.810;9.120;2022-11-20T09:33:56;2.43;;;1.90;;
209;SDS011;90;48.810;9.120;2022-11-20T09:36:23;1.70;;;1.50;;
209;SDS011;90;48.810;9.120;2022-11-20T09:38:51;1.77;;;1.70;;
209;SDS011;90;48.810;9.120;2022-11-20T09:41:25;1.90;;;1.73;;
209;SDS011;90;48.810;9.120;2022-11-20T09:44:13;1.90;;;1.90;;
209;SDS011;90;48.810;9.120;2022-11-20T09:46:54;2.00;;;1.90;;
209;SDS011;90;48.810;9.120;2022-11-20T09:49:28;2.30;;;2.10;;
209;SDS011;90;48.810;9.120;2022-11-20T09:52:09;2.47;;;2.20;;
209;SDS011;90;48.810;9.120;2022-11-20T09:54:48;2.00;;;1.93;;
209;SDS011;90;48.810;9.120;2022-11-20T09:57:17;1.80;;;1.70;;
209;SDS011;90;48.810;9.120;2022-11-20T09:59:50;1.77;;;1.53;;
209;SDS011;90;48.810;9.120;2022-11-20T10:02:26;2.63;;;2.00;;
209;SDS011;90;48.810;9.120;2022-11-20T10:04:59;1.90;;;1.70;;
209;SDS011;90;48.810;9.120;2022-11-20T10:07:34;2.93;;;2.03;;
209;SDS011;90;48.810;9.120;2022-11-20T10:10:13;2.57;;;2.37;;
209;SDS011;90;48.810;9.120;2022-11-20T10:12:46;2.73;;;2.53;;
209;SDS011;90;48.810;9.120;2022-11-20T10:15:30;2.73;;;2.53;;
209;SDS011;90;48.810;9.120;2022-11-20T10:18:09;2.57;;;2.40;;
209;SDS011;90;48.810;9.120;2022-11-20T10:20:46;2.27;;;2.07;;
209;SDS011;90;48.810;9.120;2022-11-20T10:23:24;2.60;;;2.40;;
209;SDS011;90;48.810;9.120;2022-11-20T10:26:16;2.73;;;2.20;;
209;SDS011;90;48.810;9.120;2022-11-20T10:28:49;2.50;;;2.30;;
209;SDS011;90;48.810;9.120;2022-11-20T10:31:34;4.93;;;2.30;;
209;SDS011;90;48.810;9.120;2022-11-20T10:34:05;2.43;;;2.23;;
209;SDS011;90;48.810;9.120;2022-11-20T10:36:38;2.87;;;2.70;;
209;SDS011;90;48.810;9.120;2022-11-20T10:39:13;2.70;;;2.50;;
209;SDS011;90;48.810;9.120;2022-11-20T10:41:44;3.87;;;3.13;;
209;SDS011;90;48.810;9.120;2022-11-20T10:44:15;3.00;;;2.70;;
209;SDS011;90;48.810;9.120;2022-11-20T10:47:11;2.83;;;2.67;;
209;SDS011;90;48.810;9.120;2022-11-20T10:49:40;3.50;;;3.30;;
209;SDS011;90;48.810;9.120;2022-11-20T10:52:09;4.30;;;3.30;;
209;SDS011;90;48.810;9.120;2022-11-20T10:54:43;3.37;;;3.20;;
209;SDS011;90;48.810;9.120;2022-11-20T10:57:18;3.20;;;3.00;;
209;SDS011;90;48.810;9.120;2022-11-20T10:59:59;3.37;;;3.17;;
209;SDS011;90;48.810;9.120;2022-11-20T11:02:34;3.60;;;3.40;;
209;SDS011;90;48.810;9.120;2022-11-20T11:05:16;4.83;;;3.97;;
209;SDS011;90;48.810;9.120;2022-11-20T11:07:50;3.80;;;3.17;;
209;SDS011;90;48.810;9.120;2022-11-20T11:10:21;3.10;;;2.80;;
209;SDS011;90;48.810;9.120;2022-11-20T11:12:52;3.00;;;2.80;;
209;SDS011;90;48.810;9.120;2022-11-20T11:15:26;3.53;;;3.00;;
209;SDS011;90;48.810;9.120;2022-11-20T11:17:56;3.47;;;3.27;;
209;SDS011;90;48.810;9.120;2022-11-20T11:20:24;2.93;;;2.73;;
209;SDS011;90;48.810;9.120;2022-11-20T11:22:52;3.63;;;3.20;;
209;SDS011;90;48.810;9.120;2022-11-20T11:25:22;3.83;;;3.63;;
209;SDS011;90;48.810;9.120;2022-11-20T11:27:52;3.70;;;3.40;;
209;SDS011;90;48.810;9.120;2022-11-20T11:30:21;5.67;;;3.80;;
209;SDS011;90;48.810;9.120;2022-11-20T11:32:49;4.33;;;3.97;;
209;SDS011;90;48.810;9.120;2022-11-20T11:35:22;3.70;;;3.50;;
209;SDS011;90;48.810;9.120;2022-11-20T11:37:51;3.50;;;3.30;;
209;SDS011;90;48.810;9.120;2022-11-20T11:40:21;3.90;;;3.50;;
209;SDS011;90;48.810;9.120;2022-11-20T11:42:53;4.83;;;3.60;;
209;SDS011;90;48.810;9.120;2022-11-20T11:45:22;5.70;;;3.87;;
209;SDS011;90;48.810;9.120;2022-11-20T11:47:50;4.63;;;3.60;;
209;SDS011;90;48.810;9.120;2022-11-20T11:50:20;4.10;;;3.83;;
209;SDS011;90;48.810;9.120;2022-11-20T11:52:58;3.80;;;3.20;;
209;SDS011;90;48.810;9.120;2022-11-20T11:55:33;4.53;;;3.70;;
209;SDS011;90;48.810;9.120;2022-11-20T11:58:09;4.00;;;3.80;;
209;SDS011;90;48.810;9.120;2022-11-20T12:00:45;7.13;;;3.33;;
209;SDS011;90;48.810;9.120;2022-11-20T12:03:19;3.60;;;3.40;;
209;SDS011;90;48.810;9.120;2022-11-20T12:05:53;4.73;;;3.30;;
209;SDS011;90;48.810;9.120;2022-11-20T12:08:24;5.53;;;3.73;;
209;SDS011;90;48.810;9.120;2022-11-20T12:10:55;3.17;;;2.97;;
209;SDS011;90;48.810;9.120;2022-11-20T12:13:37;2.93;;;2.60;;
209;SDS011;90;48.810;9.120;2022-11-20T12:16:11;2.93;;;2.70;;
209;SDS011;90;48.810;9.120;2022-11-20T12:18:40;3.10;;;2.90;;
209;SDS011;90;48.810;9.120;2022-11-20T12:21:13;2.60;;;2.40;;
209;SDS011;90;48.810;9.120;2022-11-20T12:23:55;2.70;;;2.53;;
209;SDS011;90;48.810;9.120;2022-11-20T12:26:36;3.50;;;2.90;;
209;SDS011;90;48.810;9.120;2022-11-20T12:29:18;3.33;;;2.33;;
209;SDS011;90;48.810;9.120;2022-11-20T12:32:05;2.50;;;2.30;;
209;SDS011;90;48.810;9.120;2022-11-20T12:34:52;4.63;;;2.63;;
209;SDS011;90;48.810;9.120;2022-11-20T12:37:33;2.80;;;2.60;;
209;SDS011;90;48.810;9.120;2022-11-20T12:40:11;3.07;;;2.60;;
209;SDS011;90;48.810;9.120;2022-11-20T12:42:53;2.87;;;2.17;;
209;SDS011;90;48.810;9.120;2022-11-20T12:45:48;2.47;;;2.27;;
209;SDS011;90;48.810;9.120;2022-11-20T12:48:35;2.70;;;2.33;;
209;SDS011;90;48.810;9.120;2022-11-20T12:51:21;2.70;;;2.50;;
209;SDS011;90;48.810;9.120;2022-11-20T12:54:08;3.73;;;2.30;;
209;SDS011;90;48.810;9.120;2022-11-20T12:56:52;2.20;;;2.00;;
209;SDS011;90;48.810;9.120;2022-11-20T12:59:32;2.50;;;2.20;;
209;SDS011;90;48.810;9.120;2022-11-20T13:02:16;2.30;;;2.10;;
209;SDS011;90;48.810;9.120;2022-11-20T13:05:03;6.07;;;2.17;;
209;SDS011;90;48.810;9.120;2022-11-20T13:07:41;3.40;;;2.13;;
209;SDS011;90;48.810;9.120;2022-11-20T13:10:14;4.37;;;2.77;;
209;SDS011;90;48.810;9.120;2022-11-20T13:12:46;2.33;;;2.13;;
209;SDS011;90;48.810;9.120;2022-11-20T13:15:23;1.87;;;1.77;;
209;SDS011;90;48.810;9.120;2022-11-20T13:18:07;3.07;;;2.03;;
209;SDS011;90;48.810;9.120;2022-11-20T13:20:36;3.80;;;2.10;;
209;SDS011;90;48.810;9.120;2022-11-20T13:23:08;2.17;;;2.03;;
209;SDS011;90;48.810;9.120;2022-11-20T13:25:37;2.20;;;2.00;;
209;SDS011;90;48.810;9.120;2022-11-20T13:30:53;2.43;;;2.27;;
209;SDS011;90;48.810;9.120;2022-11-20T13:33:22;2.87;;;2.07;;
209;SDS011;90;48.810;9.120;2022-11-20T13:35:57;2.57;;;2.37;;
209;SDS011;90;48.810;9.120;2022-11-20T13:38:25;3.90;;;2.30;;
209;SDS011;90;48.810;9.120;2022-11-20T13:40:54;2.90;;;1.93;;
209;SDS011;90;48.810;9.120;2022-11-20T13:43:27;2.73;;;2.13;;
209;SDS011;90;48.810;9.120;2022-11-20T13:46:01;3.17;;;2.20;;
209;SDS011;90;48.810;9.120;2022-11-20T13:48:30;2.00;;;1.90;;
209;SDS011;90;48.810;9.120;2022-11-20T13:54:01;3.77;;;2.00;;
209;SDS011;90;48.810;9.120;2022-11-20T13:56:56;2.57;;;2.20;;
209;SDS011;90;48.810;9.120;2022-11-20T13:59:36;3.60;;;2.03;;
209;SDS011;90;48.810;9.120;2022-11-20T14:02:13;3.70;;;1.80;;
209;SDS011;90;48.810;9.120;2022-11-20T14:04:42;1.90;;;1.70;;
209;SDS011;90;48.810;9.120;2022-11-20T14:07:14;2.30;;;2.10;;
209;SDS011;90;48.810;9.120;2022-11-20T14:09:49;2.10;;;1.90;;
209;SDS011;90;48.810;9.120;2022-11-20T14:12:19;2.90;;;2.03;;
209;SDS011;90;48.810;9.120;2022-11-20T14:14:48;2.10;;;2.00;;
209;SDS011;90;48.810;9.120;2022-11-20T14:17:17;4.00;;;2.23;;
209;SDS011;90;48.810;9.120;2022-11-20T14:19:45;2.17;;;2.00;;
209;SDS011;90;48.810;9.120;2022-11-20T14:22:18;2.70;;;1.80;;
209;SDS011;90;48.810;9.120;2022-11-20T14:24:47;2.57;;;1.97;;
209;SDS011;90;48.810;9.120;2022-11-20T14:27:15;4.93;;;2.27;;
209;SDS011;90;48.810;9.120;2022-11-20T14:29:46;3.13;;;2.20;;
209;SDS011;90;48.810;9.120;2022-11-20T14:32:15;2.73;;;2.20;;
209;SDS011;90;48.810;9.120;2022-11-20T14:34:44;2.87;;;2.50;;
209;SDS011;90;48.810;9.120;2022-11-20T14:37:17;2.60;;;2.10;;
209;SDS011;90;48.810;9.120;2022-11-20T14:39:48;2.30;;;2.10;;
209;SDS011;90;48.810;9.120;2022-11-20T14:42:18;2.83;;;2.33;;
209;SDS011;90;48.810;9.120;2022-11-20T14:44:49;4.87;;;2.97;;
209;SDS011;90;48.810;9.120;2022-11-20T14:47:18;3.27;;;3.07;;
209;SDS011;90;48.810;9.120;2022-11-20T14:49:48;4.20;;;2.67;;
209;SDS011;90;48.810;9.120;2022-11-20T14:52:17;3.03;;;2.80;;
209;SDS011;90;48.810;9.120;2022-11-20T14:54:45;3.03;;;2.63;;
209;SDS011;90;48.810;9.120;2022-11-20T14:57:20;4.63;;;2.13;;
209;SDS011;90;48.810;9.120;2022-11-20T14:59:51;3.40;;;2.30;;
209;SDS011;90;48.810;9.120;2022-11-20T15:02:30;3.13;;;2.40;;
209;SDS011;90;48.810;9.120;2022-11-20T15:04:57;3.40;;;2.23;;
209;SDS011;90;48.810;9.120;2022-11-20T15:07:27;3.10;;;2.33;;
209;SDS011;90;48.810;9.120;2022-11-20T15:10:00;3.27;;;2.00;;
209;SDS011;90;48.810;9.120;2022-11-20T15:12:29;2.90;;;2.13;;
209;SDS011;90;48.810;9.120;2022-11-20T15:14:58;2.80;;;2.23;;
209;SDS011;90;48.810;9.120;2022-11-20T15:17:26;3.80;;;2.20;;
209;SDS011;90;48.810;9.120;2022-11-20T15:19:53;2.67;;;2.47;;
209;SDS011;90;48.810;9.120;2022-11-20T15:22:21;2.67;;;2.50;;
209;SDS011;90;48.810;9.120;2022-11-20T15:24:48;2.73;;;2.50;;
209;SDS011;90;48.810;9.120;2022-11-20T15:27:15;2.97;;;2.30;;
209;SDS011;90;48.810;9.120;2022-11-20T15:29:42;6.93;;;2.90;;
209;SDS011;90;48.810;9.120;2022-11-20T15:32:11;6.27;;;2.80;;
209;SDS011;90;48.810;9.120;2022-11-20T15:34:38;3.10;;;2.90;;
209;SDS011;90;48.810;9.120;2022-11-20T15:37:06;3.93;;;2.50;;
209;SDS011;90;48.810;9.120;2022-11-20T15:39:33;3.40;;;2.70;;
209;SDS011;90;48.810;9.120;2022-11-20T15:42:01;4.70;;;3.10;;
209;SDS011;90;48.810;9.120;2022-11-20T15:44:28;2.63;;;2.43;;
209;SDS011;90;48.810;9.120;2022-11-20T15:46:55;3.10;;;2.90;;
209;SDS011;90;48.810;9.120;2022-11-20T15:49:24;4.23;;;2.83;;
209;SDS011;90;48.810;9.120;2022-11-20T15:51:51;3.10;;;2.90;;
209;SDS011;90;48.810;9.120;2022-11-20T15:54:19;3.20;;;3.00;;
209;SDS011;90;48.810;9.120;2022-11-20T15:56:48;2.77;;;2.57;;
209;SDS011;90;48.810;9.120;2022-11-20T15:59:17;3.10;;;2.90;;
209;SDS011;90;48.810;9.120;2022-11-20T16:01:44;2.73;;;2.53;;
209;SDS011;90;48.810;9.120;2022-11-20T16:04:11;6.00;;;3.60;;
209;SDS011;90;48.810;9.120;2022-11-20T16:06:41;3.73;;;3.17;;
209;SDS011;90;48.810;9.120;2022-11-20T16:09:08;8.60;;;3.03;;
209;SDS011;90;48.810;9.120;2022-11-20T16:11:35;3.00;;;2.80;;
209;SDS011;90;48.810;9.120;2022-11-20T16:14:02;5.13;;;3.00;;
209;SDS011;90;48.810;9.120;2022-11-20T16:16:47;3.73;;;2.53;;
209;SDS011;90;48.810;9.120;2022-11-20T16:19:15;3.57;;;3.37;;
209;SDS011;90;48.810;9.120;2022-11-20T16:21:44;2.97;;;2.77;;
209;SDS011;90;48.810;9.120;2022-11-20T16:24:12;3.50;;;2.87;;